Apostle Islands National Lak, Wisconsin
Current Conditions -  °F | °C
As of 7:53 PM on Friday 31 Oct 2014 (Local Time) from KASX Reporting Station
Clear Clear  
Wind Chill: 23°   Ceiling: Unl
Heat Index: 23°   Visibility: 10mi
Dew Point: 21°   Wind: 3mph
Humidity: 92%   Direction: 140°SE
Pressure: 30.51"   Gusts: NA
Location:  46.8614°N, 90.9101°W
Report Text: KASX 010053Z AUTO 14003KT 10SM CLR M05/M06 A3051 RMK AO2 SLP346 T10501061
Loading
Personal Weather Stations






























Interactive Weather Map
Tropical Storm Tracking
New forecast layout! Learn more

10-Day Weather Forecast

Advertisements
Track Severe Weather on mobile